createdAt,value
2018-05-03T00:00:32.730Z,8.30
2018-05-03T00:01:32.709Z,8.10
2018-05-03T00:02:32.693Z,11.10
2018-05-03T00:03:32.675Z,6.20
2018-05-03T00:04:32.661Z,8.20
2018-05-03T00:05:32.642Z,10.50
2018-05-03T00:06:32.625Z,6.70
2018-05-03T00:07:32.609Z,11.00
2018-05-03T00:08:32.589Z,6.90
2018-05-03T00:09:32.575Z,12.70
2018-05-03T00:10:32.566Z,6.90
2018-05-03T00:11:32.549Z,8.10
2018-05-03T00:12:32.533Z,6.10
2018-05-03T00:13:32.508Z,8.60
2018-05-03T00:14:32.492Z,7.40
2018-05-03T00:15:32.477Z,12.80
2018-05-03T00:16:32.472Z,6.90
2018-05-03T00:17:32.450Z,9.30
2018-05-03T00:18:32.432Z,8.20
2018-05-03T00:19:32.412Z,6.40
2018-05-03T00:20:32.389Z,10.80
2018-05-03T00:21:32.373Z,8.10
2018-05-03T00:22:32.358Z,7.90
2018-05-03T00:23:32.341Z,10.50
2018-05-03T00:24:32.330Z,12.00
2018-05-03T00:25:32.315Z,10.50
2018-05-03T00:26:32.297Z,9.90
2018-05-03T00:27:32.273Z,6.90
2018-05-03T00:28:32.255Z,9.30
2018-05-03T00:29:32.240Z,9.40
2018-05-03T00:30:32.222Z,9.20
2018-05-03T00:31:32.214Z,7.40
2018-05-03T00:32:32.188Z,9.10
2018-05-03T00:33:32.174Z,10.20
2018-05-03T00:34:32.155Z,8.80
2018-05-03T00:35:32.146Z,5.70
2018-05-03T00:36:32.121Z,5.80
2018-05-03T00:37:32.112Z,8.50
2018-05-03T00:38:32.090Z,10.10
2018-05-03T00:39:32.082Z,6.30
2018-05-03T00:40:32.054Z,9.50
2018-05-03T00:41:32.050Z,8.80
2018-05-03T00:42:32.024Z,7.60
2018-05-03T00:43:32.008Z,6.90
2018-05-03T00:44:31.987Z,8.10
2018-05-03T00:45:31.971Z,7.10
2018-05-03T00:46:31.954Z,5.80
2018-05-03T00:47:31.946Z,10.30
2018-05-03T00:48:31.919Z,12.70
2018-05-03T00:49:31.904Z,8.30
2018-05-03T00:50:31.898Z,8.70
2018-05-03T00:51:31.884Z,7.50
2018-05-03T00:52:31.855Z,8.60
2018-05-03T00:53:31.843Z,7.20
2018-05-03T00:54:31.858Z,6.20
2018-05-03T00:55:31.803Z,6.70
2018-05-03T00:56:31.782Z,6.30
2018-05-03T00:57:31.771Z,7.90
2018-05-03T00:58:31.760Z,6.10
2018-05-03T00:59:31.745Z,7.60
2018-05-03T01:00:31.715Z,7.20
2018-05-03T01:01:31.702Z,8.10
2018-05-03T01:02:31.682Z,9.10
2018-05-03T01:03:31.666Z,6.70
2018-05-03T01:04:31.649Z,7.30
2018-05-03T01:05:31.630Z,7.40
2018-05-03T01:06:31.614Z,7.50
2018-05-03T01:07:31.609Z,8.70
2018-05-03T01:08:31.583Z,10.60
2018-05-03T01:09:31.563Z,6.10
2018-05-03T01:10:31.545Z,6.30
2018-05-03T01:11:31.533Z,7.70
2018-05-03T01:12:31.513Z,8.10
2018-05-03T01:13:31.494Z,8.70
2018-05-03T01:14:31.479Z,7.40
2018-05-03T01:15:31.479Z,7.90
2018-05-03T01:16:31.443Z,11.10
2018-05-03T01:17:31.442Z,6.80
2018-05-03T01:18:31.415Z,8.50
2018-05-03T01:19:31.395Z,10.60
2018-05-03T01:20:31.376Z,6.20
2018-05-03T01:21:31.362Z,10.40
2018-05-03T01:22:31.346Z,8.50
2018-05-03T01:23:31.327Z,8.90
2018-05-03T01:24:31.313Z,7.10
2018-05-03T01:25:31.300Z,8.10
2018-05-03T01:26:31.288Z,10.40
2018-05-03T01:27:31.259Z,8.50
2018-05-03T01:28:31.241Z,9.80
2018-05-03T01:29:31.223Z,6.60
2018-05-03T01:30:31.205Z,7.90
2018-05-03T01:31:31.190Z,6.80
2018-05-03T01:32:31.173Z,8.00
2018-05-03T01:33:31.155Z,10.00
2018-05-03T01:34:31.139Z,8.10
2018-05-03T01:35:31.121Z,6.30
2018-05-03T01:36:31.103Z,6.80
2018-05-03T01:37:31.089Z,8.40
2018-05-03T01:38:31.071Z,7.00
2018-05-03T01:39:31.054Z,7.50
2018-05-03T01:40:31.041Z,8.70
2018-05-03T01:41:31.020Z,6.40
2018-05-03T01:42:31.002Z,8.60
2018-05-03T01:43:30.985Z,9.00
2018-05-03T01:44:30.967Z,7.30
2018-05-03T01:45:30.967Z,14.90
2018-05-03T01:46:30.936Z,9.60
2018-05-03T01:47:30.918Z,7.50
2018-05-03T01:48:30.901Z,12.00
2018-05-03T01:49:30.894Z,9.00
2018-05-03T01:50:30.868Z,6.90
2018-05-03T01:51:30.852Z,11.40
2018-05-03T01:52:30.834Z,7.10
2018-05-03T01:53:30.815Z,7.80
2018-05-03T01:54:30.800Z,9.40
2018-05-03T01:55:30.789Z,8.50
2018-05-03T01:56:30.765Z,8.60
2018-05-03T01:57:30.748Z,7.20
2018-05-03T01:58:30.745Z,9.40
2018-05-03T01:59:30.712Z,11.00
2018-05-03T02:00:30.695Z,9.20
2018-05-03T02:01:30.679Z,7.40
2018-05-03T02:02:30.661Z,8.90
2018-05-03T02:03:30.645Z,8.70
2018-05-03T02:04:30.631Z,8.40
2018-05-03T02:05:30.609Z,9.20
2018-05-03T02:06:30.605Z,8.00
2018-05-03T02:07:30.575Z,11.80
2018-05-03T02:08:30.558Z,9.80
2018-05-03T02:09:30.543Z,6.90
2018-05-03T02:10:30.529Z,11.40
2018-05-03T02:11:30.506Z,7.30
2018-05-03T02:12:30.488Z,9.50
2018-05-03T02:13:30.473Z,8.40
2018-05-03T02:14:30.455Z,10.40
2018-05-03T02:15:30.447Z,9.50
2018-05-03T02:16:30.420Z,8.80
2018-05-03T02:17:30.404Z,10.10
2018-05-03T02:18:30.390Z,9.00
2018-05-03T02:19:30.374Z,8.80
2018-05-03T02:20:30.360Z,9.70
2018-05-03T02:21:30.334Z,9.00
2018-05-03T02:22:30.319Z,8.60
2018-05-03T02:23:30.301Z,8.80
2018-05-03T02:24:30.286Z,9.80
2018-05-03T02:25:30.267Z,10.20
2018-05-03T02:26:30.249Z,9.40
2018-05-03T02:27:30.232Z,8.50
2018-05-03T02:28:30.214Z,9.30
2018-05-03T02:29:30.197Z,10.90
2018-05-03T02:30:30.183Z,10.80
2018-05-03T02:31:30.169Z,10.20
2018-05-03T02:32:30.146Z,9.80
2018-05-03T02:33:30.130Z,10.70
2018-05-03T02:34:30.113Z,8.50
2018-05-03T02:35:30.095Z,7.80
2018-05-03T02:36:30.076Z,8.70
2018-05-03T02:37:30.060Z,12.00
2018-05-03T02:38:30.043Z,11.20
2018-05-03T02:39:30.027Z,10.50
2018-05-03T02:40:30.009Z,11.60
2018-05-03T02:41:29.992Z,8.80
2018-05-03T02:42:29.974Z,9.60
2018-05-03T02:43:29.958Z,12.30
2018-05-03T02:44:29.944Z,11.30
2018-05-03T02:45:29.923Z,9.80
2018-05-03T02:46:29.907Z,9.30
2018-05-03T02:47:29.890Z,8.60
2018-05-03T02:48:29.886Z,10.10
2018-05-03T02:49:29.864Z,12.10
2018-05-03T02:50:29.838Z,10.20
2018-05-03T02:51:29.821Z,9.60
2018-05-03T02:52:29.803Z,12.10
2018-05-03T02:53:29.787Z,14.90
2018-05-03T02:54:29.773Z,10.10
2018-05-03T02:55:29.757Z,10.30
2018-05-03T02:56:29.734Z,10.10
2018-05-03T02:57:29.718Z,13.10
2018-05-03T02:58:29.852Z,10.00
2018-05-03T02:59:29.703Z,10.60
2018-05-03T03:00:29.667Z,11.80
2018-05-03T03:01:29.651Z,8.60
2018-05-03T03:02:29.726Z,14.70
2018-05-03T03:03:29.633Z,11.50
2018-05-03T03:04:29.606Z,8.80
2018-05-03T03:05:29.582Z,8.40
2018-05-03T03:06:29.566Z,9.30
2018-05-03T03:07:29.551Z,11.30
2018-05-03T03:08:29.531Z,11.80
2018-05-03T03:09:29.516Z,10.20
2018-05-03T03:10:29.500Z,10.40
2018-05-03T03:11:29.492Z,11.40
2018-05-03T03:12:29.464Z,11.10
2018-05-03T03:13:29.450Z,10.30
2018-05-03T03:14:29.429Z,12.90
2018-05-03T03:15:29.416Z,10.00
2018-05-03T03:16:29.401Z,10.50
2018-05-03T03:17:29.377Z,10.40
2018-05-03T03:18:29.361Z,11.70
2018-05-03T03:19:29.344Z,12.50
2018-05-03T03:20:29.327Z,11.30
2018-05-03T03:21:29.313Z,12.00
2018-05-03T03:22:29.293Z,10.60
2018-05-03T03:23:29.278Z,10.90
2018-05-03T03:24:29.259Z,12.20
2018-05-03T03:25:29.242Z,11.40
2018-05-03T03:26:29.225Z,10.50
2018-05-03T03:27:29.215Z,11.80
2018-05-03T03:28:29.190Z,10.80
2018-05-03T03:29:29.174Z,10.60
2018-05-03T03:30:29.159Z,15.40
2018-05-03T03:31:29.143Z,10.20
2018-05-03T03:32:29.134Z,12.70
2018-05-03T03:33:29.108Z,12.60
2018-05-03T03:34:29.088Z,10.80
2018-05-03T03:35:29.073Z,13.20
2018-05-03T03:36:29.054Z,13.00
2018-05-03T03:37:29.037Z,12.90
2018-05-03T03:38:29.021Z,15.20
2018-05-03T03:39:29.004Z,13.70
2018-05-03T03:40:28.985Z,11.60
2018-05-03T03:41:28.969Z,12.50
2018-05-03T03:42:28.958Z,11.20
2018-05-03T03:43:28.936Z,11.80
2018-05-03T03:44:28.918Z,14.00
2018-05-03T03:45:28.900Z,14.10
2018-05-03T03:46:28.884Z,12.30
2018-05-03T03:47:28.868Z,14.30
2018-05-03T03:48:28.852Z,11.60
2018-05-03T03:49:28.834Z,13.30
2018-05-03T03:50:28.832Z,15.40
2018-05-03T03:51:28.799Z,13.60
2018-05-03T03:52:28.783Z,13.80
2018-05-03T03:53:28.769Z,15.90
2018-05-03T03:54:28.748Z,14.50
2018-05-03T03:55:28.732Z,16.10
2018-05-03T03:56:28.714Z,14.10
2018-05-03T03:57:28.696Z,16.60
2018-05-03T03:58:28.682Z,12.00
2018-05-03T03:59:28.667Z,14.30
2018-05-03T04:00:28.659Z,23.40
2018-05-03T04:01:28.629Z,15.80
2018-05-03T04:02:28.612Z,14.40
2018-05-03T04:03:28.599Z,15.50
2018-05-03T04:04:28.602Z,16.20
2018-05-03T04:05:28.561Z,16.70
2018-05-03T04:06:28.549Z,18.40
2018-05-03T04:07:28.527Z,20.40
2018-05-03T04:08:28.589Z,14.60
2018-05-03T04:09:28.492Z,17.20
2018-05-03T04:10:28.480Z,15.30
2018-05-03T04:11:28.460Z,17.30
2018-05-03T04:12:28.441Z,17.40
2018-05-03T04:13:28.425Z,16.40
2018-05-03T04:14:28.410Z,16.50
2018-05-03T04:15:28.390Z,21.10
2018-05-03T04:16:28.375Z,22.70
2018-05-03T04:17:28.357Z,17.80
2018-05-03T04:18:28.340Z,22.20
2018-05-03T04:19:28.323Z,21.50
2018-05-03T04:20:28.304Z,19.70
2018-05-03T04:21:28.288Z,20.90
2018-05-03T04:22:28.296Z,22.00
2018-05-03T04:23:28.254Z,24.80
2018-05-03T04:24:28.237Z,22.20
2018-05-03T04:25:28.220Z,24.50
2018-05-03T04:26:28.204Z,25.40
2018-05-03T04:27:28.185Z,24.50
2018-05-03T04:28:28.177Z,25.20
2018-05-03T04:29:28.156Z,24.40
2018-05-03T04:30:28.134Z,25.30
2018-05-03T04:31:28.118Z,27.00
2018-05-03T04:32:28.099Z,25.80
2018-05-03T04:33:28.086Z,26.40
2018-05-03T04:34:28.109Z,27.70
2018-05-03T04:35:28.047Z,23.40
2018-05-03T04:36:28.034Z,26.00
2018-05-03T04:37:28.015Z,24.80
2018-05-03T04:38:28.006Z,22.60
2018-05-03T04:39:27.980Z,26.00
2018-05-03T04:40:27.963Z,22.00
2018-05-03T04:41:27.947Z,24.60
2018-05-03T04:42:27.930Z,24.90
2018-05-03T04:43:27.911Z,25.20
2018-05-03T04:44:27.894Z,23.30
2018-05-03T04:45:27.876Z,24.30
2018-05-03T04:46:27.860Z,31.80
2018-05-03T04:47:27.842Z,22.10
2018-05-03T04:48:27.830Z,22.00
2018-05-03T04:49:27.807Z,21.50
2018-05-03T04:50:27.792Z,25.50
2018-05-03T04:51:27.781Z,24.90
2018-05-03T04:52:27.757Z,20.40
2018-05-03T04:53:27.742Z,21.60
2018-05-03T04:54:27.723Z,16.70
2018-05-03T04:55:27.705Z,22.80
2018-05-03T04:56:27.695Z,18.80
2018-05-03T04:57:27.678Z,20.30
2018-05-03T04:58:27.653Z,19.30
2018-05-03T04:59:27.636Z,20.40
2018-05-03T05:00:27.623Z,22.00
2018-05-03T05:01:27.603Z,22.30
2018-05-03T05:02:27.584Z,20.40
2018-05-03T05:03:27.566Z,17.40
2018-05-03T05:04:27.550Z,16.80
2018-05-03T05:05:27.540Z,22.10
2018-05-03T05:06:27.514Z,16.80
2018-05-03T05:07:27.499Z,19.60
2018-05-03T05:08:27.479Z,20.90
2018-05-03T05:09:27.464Z,16.90
2018-05-03T05:10:27.509Z,18.30
2018-05-03T05:11:27.429Z,15.00
2018-05-03T05:12:27.411Z,19.00
2018-05-03T05:13:27.395Z,15.90
2018-05-03T05:14:27.379Z,17.60
2018-05-03T05:15:27.369Z,17.10
2018-05-03T05:16:27.342Z,16.00
2018-05-03T05:17:27.326Z,19.10
2018-05-03T05:18:27.310Z,16.80
2018-05-03T05:19:27.291Z,13.70
2018-05-03T05:20:27.274Z,15.60
2018-05-03T05:21:27.262Z,18.00
2018-05-03T05:22:27.243Z,15.70
2018-05-03T05:23:27.241Z,22.90
2018-05-03T05:24:27.205Z,14.20
2018-05-03T05:25:27.205Z,15.20
2018-05-03T05:26:27.173Z,13.20
2018-05-03T05:27:27.161Z,15.40
2018-05-03T05:28:27.139Z,13.50
2018-05-03T05:29:27.123Z,13.10
2018-05-03T05:30:27.109Z,19.80
2018-05-03T05:31:27.095Z,18.90
2018-05-03T05:32:27.080Z,11.50
2018-05-03T05:33:27.054Z,15.30
2018-05-03T05:34:27.036Z,17.40
2018-05-03T05:35:27.022Z,16.40
2018-05-03T05:36:27.158Z,17.60
2018-05-03T05:37:26.988Z,14.60
2018-05-03T05:38:26.978Z,13.70
2018-05-03T05:39:26.956Z,13.80
2018-05-03T05:40:26.950Z,14.70
2018-05-03T05:41:26.929Z,15.60
2018-05-03T05:42:26.904Z,13.70
2018-05-03T05:43:26.885Z,14.30
2018-05-03T05:44:26.877Z,16.60
2018-05-03T05:45:26.851Z,16.40
2018-05-03T05:46:26.836Z,15.90
2018-05-03T05:47:26.819Z,15.40
2018-05-03T05:48:26.803Z,15.70
2018-05-03T05:49:26.802Z,14.20
2018-05-03T05:50:26.770Z,11.90
2018-05-03T05:51:26.753Z,15.30
2018-05-03T05:52:26.748Z,14.00
2018-05-03T05:53:26.721Z,13.20
2018-05-03T05:54:26.706Z,12.20
2018-05-03T05:55:26.688Z,14.40
2018-05-03T05:56:26.672Z,13.70
2018-05-03T05:57:26.658Z,17.80
2018-05-03T05:58:26.641Z,13.00
2018-05-03T05:59:26.636Z,13.60
2018-05-03T06:00:26.616Z,13.10
2018-05-03T06:01:26.594Z,8.50
2018-05-03T06:02:26.590Z,11.30
2018-05-03T06:03:26.564Z,11.10
2018-05-03T06:04:26.548Z,16.00
2018-05-03T06:05:26.591Z,12.80
2018-05-03T06:06:26.521Z,10.80
2018-05-03T06:07:26.505Z,12.90
2018-05-03T06:08:26.491Z,8.80
2018-05-03T06:09:26.473Z,12.30
2018-05-03T06:10:26.463Z,15.20
2018-05-03T06:11:26.452Z,15.30
2018-05-03T06:12:26.460Z,16.20
2018-05-03T06:13:26.415Z,14.90
2018-05-03T06:14:26.400Z,8.10
2018-05-03T06:15:26.386Z,14.40
2018-05-03T06:16:26.375Z,16.90
2018-05-03T06:17:26.365Z,12.80
2018-05-03T06:18:26.342Z,9.70
2018-05-03T06:19:26.330Z,11.30
2018-05-03T06:20:26.318Z,10.30
2018-05-03T06:21:26.351Z,10.60
2018-05-03T06:22:26.286Z,9.00
2018-05-03T06:23:26.273Z,12.40
2018-05-03T06:24:26.257Z,11.10
2018-05-03T06:25:26.245Z,11.90
2018-05-03T06:26:26.233Z,18.10
2018-05-03T06:27:26.224Z,14.60
2018-05-03T06:28:26.207Z,16.50
2018-05-03T06:29:26.195Z,12.20
2018-05-03T06:30:26.181Z,14.60
2018-05-03T06:31:26.169Z,16.20
2018-05-03T06:32:26.162Z,12.70
2018-05-03T06:33:26.142Z,8.10
2018-05-03T06:34:26.136Z,14.50
2018-05-03T06:35:26.118Z,11.90
2018-05-03T06:36:26.103Z,15.10
2018-05-03T06:37:26.090Z,9.10
2018-05-03T06:38:26.078Z,13.00
2018-05-03T06:39:26.073Z,13.00
2018-05-03T06:40:26.051Z,12.80
2018-05-03T06:41:26.044Z,12.90
2018-05-03T06:42:26.029Z,12.50
2018-05-03T06:43:26.016Z,10.60
2018-05-03T06:44:26.001Z,8.70
2018-05-03T06:45:26.048Z,9.10
2018-05-03T06:46:25.984Z,12.40
2018-05-03T06:47:25.967Z,13.60
2018-05-03T06:48:25.953Z,11.70
2018-05-03T06:49:25.943Z,10.90
2018-05-03T06:50:25.938Z,12.20
2018-05-03T06:51:25.933Z,13.60
2018-05-03T06:52:25.911Z,8.20
2018-05-03T06:53:25.900Z,12.30
2018-05-03T06:54:25.882Z,9.00
2018-05-03T06:55:25.880Z,11.50
2018-05-03T06:56:25.859Z,10.90
2018-05-03T06:57:25.847Z,10.10
2018-05-03T06:58:25.843Z,8.80
2018-05-03T06:59:25.849Z,11.60
2018-05-03T07:00:25.810Z,9.00
2018-05-03T07:01:25.798Z,14.30
2018-05-03T07:02:25.787Z,13.60
2018-05-03T07:03:25.775Z,17.40
2018-05-03T07:04:25.820Z,11.90
2018-05-03T07:05:25.763Z,8.40
2018-05-03T07:06:25.748Z,9.70
2018-05-03T07:07:25.733Z,11.70
2018-05-03T07:08:25.717Z,14.40
2018-05-03T07:09:25.709Z,12.80
2018-05-03T07:10:25.689Z,11.40
2018-05-03T07:11:25.677Z,16.30
2018-05-03T07:12:25.664Z,8.70
2018-05-03T07:13:25.653Z,13.70
2018-05-03T07:14:25.641Z,10.30
2018-05-03T07:15:25.706Z,9.70
2018-05-03T07:16:25.762Z,11.20
2018-05-03T07:17:25.613Z,9.30
2018-05-03T07:18:25.593Z,9.30
2018-05-03T07:19:25.609Z,12.50
2018-05-03T07:20:25.565Z,11.80
2018-05-03T07:21:25.556Z,12.70
2018-05-03T07:22:25.545Z,11.80
2018-05-03T07:23:25.536Z,10.50
2018-05-03T07:24:25.532Z,10.70
2018-05-03T07:25:25.515Z,9.60
2018-05-03T07:26:25.492Z,13.50
2018-05-03T07:27:25.480Z,11.80
2018-05-03T07:28:25.468Z,9.60
2018-05-03T07:29:25.474Z,8.50
2018-05-03T07:30:25.446Z,9.20
2018-05-03T07:31:25.431Z,12.20
2018-05-03T07:32:25.426Z,10.20
2018-05-03T07:33:25.407Z,13.30
2018-05-03T07:34:25.394Z,10.60
2018-05-03T07:35:25.387Z,16.80
2018-05-03T07:36:25.372Z,8.20
2018-05-03T07:37:25.359Z,11.00
2018-05-03T07:38:25.344Z,12.30
2018-05-03T07:39:25.341Z,9.40
2018-05-03T07:40:25.321Z,13.00
2018-05-03T07:41:25.321Z,14.30
2018-05-03T07:42:25.301Z,11.30
2018-05-03T07:43:25.281Z,10.80
2018-05-03T07:44:25.268Z,12.40
2018-05-03T07:45:25.265Z,8.70
2018-05-03T07:46:25.259Z,14.00
2018-05-03T07:47:25.233Z,12.30
2018-05-03T07:48:25.220Z,12.40
2018-05-03T07:49:25.208Z,10.80
2018-05-03T07:50:25.199Z,14.30
2018-05-03T07:51:25.189Z,11.80
2018-05-03T07:52:25.170Z,14.50
2018-05-03T07:53:25.162Z,13.20
2018-05-03T07:54:25.146Z,11.50
2018-05-03T07:55:25.134Z,13.20
2018-05-03T07:56:25.122Z,10.70
2018-05-03T07:57:25.209Z,12.50
2018-05-03T07:58:25.148Z,10.90
2018-05-03T07:59:25.084Z,9.10
2018-05-03T08:00:25.071Z,12.10
2018-05-03T08:01:25.059Z,14.50
2018-05-03T08:02:25.048Z,13.70
2018-05-03T08:03:25.036Z,13.70
2018-05-03T08:04:25.041Z,10.50
2018-05-03T08:05:25.019Z,10.50
2018-05-03T08:06:24.999Z,10.10
2018-05-03T08:07:24.985Z,14.50
2018-05-03T08:08:24.976Z,13.40
2018-05-03T08:09:24.961Z,8.70
2018-05-03T08:10:24.948Z,12.90
2018-05-03T08:11:24.938Z,14.50
2018-05-03T08:12:24.922Z,12.40
2018-05-03T08:13:24.933Z,12.60
2018-05-03T08:14:24.899Z,8.40
2018-05-03T08:15:24.888Z,10.50
2018-05-03T08:16:24.883Z,10.70
2018-05-03T08:17:24.860Z,12.10
2018-05-03T08:18:24.848Z,13.80
2018-05-03T08:19:24.928Z,9.40
2018-05-03T08:20:24.823Z,11.90
2018-05-03T08:21:24.810Z,11.30
2018-05-03T08:22:24.862Z,11.80
2018-05-03T08:23:24.787Z,11.80
2018-05-03T08:24:24.773Z,11.80
2018-05-03T08:25:24.763Z,12.30
2018-05-03T08:26:24.757Z,9.40
2018-05-03T08:27:24.738Z,10.30
2018-05-03T08:28:24.722Z,13.20
2018-05-03T08:29:24.711Z,10.90
2018-05-03T08:30:24.701Z,8.30
2018-05-03T08:31:24.685Z,9.90
2018-05-03T08:32:24.669Z,11.70
2018-05-03T08:33:24.661Z,12.90
2018-05-03T08:34:24.650Z,12.40
2018-05-03T08:35:24.640Z,10.20
2018-05-03T08:36:24.623Z,11.30
2018-05-03T08:37:24.610Z,9.00
2018-05-03T08:38:24.595Z,14.80
2018-05-03T08:39:24.590Z,15.40
2018-05-03T08:40:24.570Z,11.40
2018-05-03T08:41:24.558Z,9.30
2018-05-03T08:42:24.544Z,11.60
2018-05-03T08:43:24.531Z,12.00
2018-05-03T08:44:24.520Z,9.90
2018-05-03T08:45:24.506Z,10.80
2018-05-03T08:46:24.493Z,11.60
2018-05-03T08:47:24.482Z,8.10
2018-05-03T08:48:24.480Z,13.80
2018-05-03T08:49:24.535Z,11.80
2018-05-03T08:50:24.446Z,10.10
2018-05-03T08:51:24.439Z,10.50
2018-05-03T08:52:24.417Z,16.30
2018-05-03T08:53:24.409Z,11.00
2018-05-03T08:54:24.399Z,12.40
2018-05-03T08:55:24.420Z,12.30
2018-05-03T08:56:24.368Z,10.70
2018-05-03T08:57:24.354Z,10.50
2018-05-03T08:58:24.341Z,12.60
2018-05-03T08:59:24.330Z,11.50
2018-05-03T09:00:24.316Z,15.70
2018-05-03T09:01:24.387Z,8.60
2018-05-03T09:02:24.291Z,9.10
2018-05-03T09:03:24.281Z,11.00
2018-05-03T09:04:24.271Z,9.90
2018-05-03T09:05:24.255Z,16.20
2018-05-03T09:06:24.244Z,11.40
2018-05-03T09:07:24.247Z,12.40
2018-05-03T09:08:24.218Z,9.40
2018-05-03T09:09:24.223Z,10.00
2018-05-03T09:10:24.205Z,10.50
2018-05-03T09:11:24.184Z,9.60
2018-05-03T09:12:24.172Z,12.00
2018-05-03T09:13:24.160Z,9.90
2018-05-03T09:14:24.149Z,11.80
2018-05-03T09:15:24.144Z,12.70
2018-05-03T09:16:24.126Z,9.50
2018-05-03T09:17:24.114Z,9.90
2018-05-03T09:18:24.107Z,10.80
2018-05-03T09:19:24.107Z,10.40
2018-05-03T09:20:24.091Z,9.00
2018-05-03T09:21:24.070Z,10.70
2018-05-03T09:22:24.131Z,9.40
2018-05-03T09:23:24.058Z,8.00
2018-05-03T09:24:24.034Z,15.00
2018-05-03T09:25:24.031Z,16.70
2018-05-03T09:26:24.020Z,10.20
2018-05-03T09:27:24.027Z,10.40
2018-05-03T09:28:23.994Z,10.20
2018-05-03T09:29:23.981Z,10.10
2018-05-03T09:30:23.968Z,11.90
2018-05-03T09:31:23.963Z,12.20
2018-05-03T09:32:23.944Z,10.60
2018-05-03T09:33:23.932Z,8.90
2018-05-03T09:34:23.921Z,12.40
2018-05-03T09:35:23.921Z,8.40
2018-05-03T09:36:23.901Z,6.70
2018-05-03T09:37:23.886Z,6.40
2018-05-03T09:38:23.877Z,7.30
2018-05-03T09:39:23.866Z,7.70
2018-05-03T09:40:23.858Z,7.10
2018-05-03T09:41:23.848Z,10.30
2018-05-03T09:42:23.834Z,10.20
2018-05-03T09:43:23.823Z,12.40
2018-05-03T09:44:23.849Z,12.00
2018-05-03T09:45:23.801Z,9.80
2018-05-03T09:46:23.800Z,9.80
2018-05-03T09:47:23.783Z,11.40
2018-05-03T09:48:23.784Z,8.60
2018-05-03T09:49:23.763Z,8.70
2018-05-03T09:50:23.759Z,7.80
2018-05-03T09:51:23.754Z,8.10
2018-05-03T09:52:23.789Z,21.00
2018-05-03T09:53:23.727Z,10.80
2018-05-03T09:54:23.722Z,7.90
2018-05-03T09:55:23.720Z,6.60
2018-05-03T09:56:23.713Z,7.70
2018-05-03T09:57:23.697Z,12.30
2018-05-03T09:58:23.690Z,9.70
2018-05-03T09:59:23.778Z,11.80
2018-05-03T10:00:23.676Z,7.00
2018-05-03T10:01:23.670Z,15.40
2018-05-03T10:02:23.664Z,9.20
2018-05-03T10:03:23.659Z,9.40
2018-05-03T10:04:23.652Z,7.60
2018-05-03T10:05:23.646Z,10.90
2018-05-03T10:06:23.646Z,13.30
2018-05-03T10:07:23.636Z,11.60
2018-05-03T10:08:23.634Z,10.80
2018-05-03T10:09:23.640Z,9.50
2018-05-03T10:10:23.635Z,10.40
2018-05-03T10:11:23.633Z,6.50
2018-05-03T10:12:23.608Z,7.20
2018-05-03T10:13:23.724Z,6.70
2018-05-03T10:14:23.595Z,13.50
2018-05-03T10:15:23.601Z,12.90
2018-05-03T10:16:23.582Z,12.60
2018-05-03T10:17:23.579Z,9.10
2018-05-03T10:18:23.582Z,8.70
2018-05-03T10:19:23.568Z,10.00
2018-05-03T10:20:23.582Z,6.40
2018-05-03T10:21:23.566Z,8.30
2018-05-03T10:22:23.561Z,11.80
2018-05-03T10:23:23.550Z,11.20
2018-05-03T10:24:23.546Z,8.60
2018-05-03T10:25:23.542Z,11.20
2018-05-03T10:26:23.541Z,10.80
2018-05-03T10:27:23.539Z,10.30
2018-05-03T10:28:23.531Z,10.90
2018-05-03T10:29:23.528Z,7.80
2018-05-03T10:30:23.521Z,9.40
2018-05-03T10:31:23.524Z,8.70
2018-05-03T10:32:23.524Z,9.80
2018-05-03T10:33:23.513Z,8.80
2018-05-03T10:34:23.511Z,9.00
2018-05-03T10:35:23.504Z,10.70
2018-05-03T10:36:23.506Z,9.00
2018-05-03T10:37:23.493Z,9.60
2018-05-03T10:38:23.494Z,8.80
2018-05-03T10:39:23.487Z,10.20
2018-05-03T10:40:23.491Z,14.00
2018-05-03T10:41:23.476Z,15.90
2018-05-03T10:42:23.497Z,13.60
2018-05-03T10:43:23.489Z,9.80
2018-05-03T10:44:23.468Z,9.80
2018-05-03T10:45:23.468Z,10.20
2018-05-03T10:46:23.471Z,12.70
2018-05-03T10:47:23.457Z,10.50
2018-05-03T10:48:23.468Z,6.70
2018-05-03T10:49:23.453Z,6.90
2018-05-03T10:50:23.456Z,7.80
2018-05-03T10:51:23.458Z,7.40
2018-05-03T10:52:23.445Z,11.70
2018-05-03T10:53:23.449Z,13.80
2018-05-03T10:54:23.446Z,11.50
2018-05-03T10:55:23.443Z,8.20
2018-05-03T10:56:23.441Z,9.00
2018-05-03T10:57:23.499Z,9.50
2018-05-03T10:58:23.439Z,8.70
2018-05-03T10:59:23.435Z,11.40
2018-05-03T11:00:23.433Z,11.60
2018-05-03T11:01:23.431Z,7.70
2018-05-03T11:02:23.434Z,8.00
2018-05-03T11:03:23.430Z,9.50
2018-05-03T11:04:23.435Z,12.80
2018-05-03T11:05:23.468Z,11.00
2018-05-03T11:06:23.426Z,7.30
2018-05-03T11:07:23.424Z,7.00
2018-05-03T11:08:23.423Z,9.80
2018-05-03T11:09:23.421Z,7.80
2018-05-03T11:10:23.433Z,8.00
2018-05-03T11:11:23.427Z,10.00
2018-05-03T11:12:23.415Z,11.80
2018-05-03T11:13:23.424Z,10.20
2018-05-03T11:14:23.416Z,8.90
2018-05-03T11:15:23.429Z,10.30
2018-05-03T11:16:23.413Z,8.60
2018-05-03T11:17:23.413Z,8.40
2018-05-03T11:18:23.412Z,9.00
2018-05-03T11:19:23.421Z,6.50
2018-05-03T11:20:23.409Z,8.80
2018-05-03T11:21:23.410Z,9.20
2018-05-03T11:22:23.408Z,10.50
2018-05-03T11:23:23.408Z,8.90
2018-05-03T11:24:23.406Z,8.60
2018-05-03T11:25:23.406Z,8.00
2018-05-03T11:26:23.414Z,10.10
2018-05-03T11:27:23.406Z,9.60
2018-05-03T11:28:23.416Z,7.40
2018-05-03T11:29:23.411Z,9.50
2018-05-03T11:30:23.412Z,9.60
2018-05-03T11:31:23.467Z,10.00
2018-05-03T11:32:23.400Z,8.50
2018-05-03T11:33:23.400Z,9.40
2018-05-03T11:34:23.395Z,8.30
2018-05-03T11:35:23.403Z,7.30
2018-05-03T11:36:23.393Z,10.00
2018-05-03T11:37:23.401Z,8.40
2018-05-03T11:38:23.399Z,10.80
2018-05-03T11:39:23.395Z,10.50
2018-05-03T11:40:23.386Z,8.70
2018-05-03T11:41:23.383Z,11.60
2018-05-03T11:42:23.390Z,7.20
2018-05-03T11:43:23.377Z,8.30
2018-05-03T11:44:23.378Z,10.40
2018-05-03T11:45:23.373Z,8.60
2018-05-03T11:46:23.374Z,7.20
2018-05-03T11:47:23.367Z,9.00
2018-05-03T11:48:23.363Z,8.50
2018-05-03T11:49:23.365Z,9.00
2018-05-03T11:50:23.356Z,10.40
2018-05-03T11:51:23.353Z,9.90
2018-05-03T11:52:23.393Z,6.00
2018-05-03T11:53:23.343Z,8.10
2018-05-03T11:54:23.340Z,8.60
2018-05-03T11:55:23.334Z,11.90
2018-05-03T11:56:23.336Z,10.70
2018-05-03T11:57:23.325Z,8.80
2018-05-03T11:58:23.318Z,10.10
2018-05-03T11:59:23.413Z,10.90
2018-05-03T12:00:23.311Z,8.70
2018-05-03T12:01:23.297Z,9.00
2018-05-03T12:02:23.378Z,9.30
2018-05-03T12:03:23.288Z,10.20
2018-05-03T12:04:23.279Z,13.00
2018-05-03T12:05:23.276Z,10.60
2018-05-03T12:06:23.261Z,11.90
2018-05-03T12:07:23.264Z,9.40
2018-05-03T12:08:23.256Z,7.80
2018-05-03T12:09:23.238Z,11.10
2018-05-03T12:10:23.241Z,11.10
2018-05-03T12:11:23.225Z,11.10
2018-05-03T12:12:23.213Z,9.50
2018-05-03T12:13:23.205Z,11.00
2018-05-03T12:14:23.196Z,10.20
2018-05-03T12:15:23.193Z,10.90
2018-05-03T12:16:23.185Z,9.80
2018-05-03T12:17:23.171Z,9.30
2018-05-03T12:18:23.169Z,12.10
2018-05-03T12:19:23.157Z,8.60
2018-05-03T12:20:23.163Z,9.10
2018-05-03T12:21:23.146Z,7.60
2018-05-03T12:22:23.126Z,9.10
2018-05-03T12:23:23.119Z,8.00
2018-05-03T12:24:23.132Z,10.00
2018-05-03T12:25:23.104Z,9.90
2018-05-03T12:26:23.093Z,10.20
2018-05-03T12:27:23.079Z,12.00
2018-05-03T12:28:23.089Z,9.50
2018-05-03T12:29:23.058Z,8.70
2018-05-03T12:30:23.051Z,9.40
2018-05-03T12:31:23.041Z,8.50
2018-05-03T12:32:23.028Z,11.60
2018-05-03T12:33:23.026Z,11.60
2018-05-03T12:34:23.012Z,7.70
2018-05-03T12:35:22.999Z,9.80
2018-05-03T12:36:23.006Z,13.00
2018-05-03T12:37:22.980Z,9.70
2018-05-03T12:38:22.970Z,6.80
2018-05-03T12:39:22.959Z,9.90
2018-05-03T12:40:22.948Z,11.60
2018-05-03T12:41:22.965Z,9.10
2018-05-03T12:42:22.938Z,11.70
2018-05-03T12:43:22.918Z,9.10
2018-05-03T12:44:22.909Z,12.80
2018-05-03T12:45:22.904Z,11.70
2018-05-03T12:46:22.888Z,9.10
2018-05-03T12:47:22.885Z,10.80
2018-05-03T12:48:22.886Z,11.30
2018-05-03T12:49:22.861Z,8.80
2018-05-03T12:50:22.856Z,11.40
2018-05-03T12:51:22.837Z,8.40
2018-05-03T12:52:22.833Z,7.50
2018-05-03T12:53:22.816Z,7.40
2018-05-03T12:54:22.809Z,9.90
2018-05-03T12:55:22.796Z,7.00
2018-05-03T12:56:22.792Z,9.50
2018-05-03T12:57:22.782Z,12.80
2018-05-03T12:58:22.777Z,12.40
2018-05-03T12:59:22.754Z,9.00
2018-05-03T13:00:22.744Z,8.10
2018-05-03T13:01:22.739Z,15.60
2018-05-03T13:02:22.725Z,8.40